Beauly, United Kingdom
Current Conditions -  °F | °C
As of 1:20 PM on Tuesday 21 Oct 2014 (Local Time) from EGPE Reporting Station
Rain Showers Rain Showers  
Wind Chill: 36°   Ceiling: Unl
Heat Index: 45°   Visibility: 6mi
Dew Point: 41°   Wind: 22mph
Humidity: 87%   Direction: 280°W
Pressure: 29.41"   Gusts: 33mph
Location:  57.48°N, 4.46°W
Report Text: EGPE 211220Z 28019G29KT 9999 5000S VCSH FEW010 SCT015CB 07/05 Q0996
Loading
Personal Weather Stations






























Interactive Weather Map
Tropical Storm Tracking
New forecast layout! Learn more

10-Day Weather Forecast

Advertisements
Track Severe Weather on mobile